sensor_id;sensor_type;location;lat;lon;timestamp;pressure;altitude;pressure_sealevel;temperature;humidity
66479;BME280;53294;47.912;13.526;2023-01-26T00:01:17;96547.66;;;1.89;69.80
66479;BME280;53294;47.912;13.526;2023-01-26T00:03:45;96541.22;;;1.96;69.27
66479;BME280;53294;47.912;13.526;2023-01-26T00:06:14;96537.75;;;1.84;69.96
66479;BME280;53294;47.912;13.526;2023-01-26T00:08:44;96538.00;;;1.94;69.65
66479;BME280;53294;47.912;13.526;2023-01-26T00:11:13;96524.75;;;1.94;69.70
66479;BME280;53294;47.912;13.526;2023-01-26T00:13:40;96525.09;;;1.98;69.81
66479;BME280;53294;47.912;13.526;2023-01-26T00:16:10;96516.53;;;2.08;69.49
66479;BME280;53294;47.912;13.526;2023-01-26T00:18:37;96519.56;;;1.88;69.91
66479;BME280;53294;47.912;13.526;2023-01-26T00:21:05;96510.56;;;1.77;70.15
66479;BME280;53294;47.912;13.526;2023-01-26T00:23:35;96511.94;;;1.44;70.97
66479;BME280;53294;47.912;13.526;2023-01-26T00:26:04;96515.06;;;1.53;71.08
66479;BME280;53294;47.912;13.526;2023-01-26T00:28:31;96510.47;;;1.72;70.29
66479;BME280;53294;47.912;13.526;2023-01-26T00:31:07;96513.09;;;1.95;70.07
66479;BME280;53294;47.912;13.526;2023-01-26T00:33:34;96511.50;;;1.94;69.63
66479;BME280;53294;47.912;13.526;2023-01-26T00:36:00;96507.00;;;2.07;69.18
66479;BME280;53294;47.912;13.526;2023-01-26T00:38:27;96509.75;;;2.12;68.82
66479;BME280;53294;47.912;13.526;2023-01-26T00:40:54;96511.97;;;1.91;69.23
66479;BME280;53294;47.912;13.526;2023-01-26T00:43:21;96508.38;;;1.86;69.96
66479;BME280;53294;47.912;13.526;2023-01-26T00:45:47;96504.25;;;1.90;69.30
66479;BME280;53294;47.912;13.526;2023-01-26T00:48:14;96515.28;;;1.98;69.54
66479;BME280;53294;47.912;13.526;2023-01-26T00:50:41;96507.34;;;1.75;69.74
66479;BME280;53294;47.912;13.526;2023-01-26T00:53:08;96508.84;;;1.71;70.06
66479;BME280;53294;47.912;13.526;2023-01-26T00:55:35;96500.66;;;1.25;70.92
66479;BME280;53294;47.912;13.526;2023-01-26T00:58:04;96509.84;;;1.22;70.91
66479;BME280;53294;47.912;13.526;2023-01-26T01:00:32;96500.88;;;1.23;71.18
66479;BME280;53294;47.912;13.526;2023-01-26T01:02:59;96502.94;;;1.21;70.90
66479;BME280;53294;47.912;13.526;2023-01-26T01:05:28;96498.84;;;1.49;70.34
66479;BME280;53294;47.912;13.526;2023-01-26T01:07:56;96497.66;;;1.57;70.20
66479;BME280;53294;47.912;13.526;2023-01-26T01:10:23;96498.03;;;1.84;69.37
66479;BME280;53294;47.912;13.526;2023-01-26T01:12:53;96503.44;;;1.89;69.15
66479;BME280;53294;47.912;13.526;2023-01-26T01:15:19;96502.19;;;1.45;70.16
66479;BME280;53294;47.912;13.526;2023-01-26T01:17:46;96496.28;;;1.31;70.33
66479;BME280;53294;47.912;13.526;2023-01-26T01:20:13;96504.50;;;0.99;70.23
66479;BME280;53294;47.912;13.526;2023-01-26T01:22:40;96503.09;;;0.96;71.29
66479;BME280;53294;47.912;13.526;2023-01-26T01:25:07;96507.34;;;1.28;70.29
66479;BME280;53294;47.912;13.526;2023-01-26T01:27:34;96500.75;;;1.18;70.35
66479;BME280;53294;47.912;13.526;2023-01-26T01:30:01;96494.19;;;1.09;71.01
66479;BME280;53294;47.912;13.526;2023-01-26T01:32:37;96497.53;;;1.28;70.30
66479;BME280;53294;47.912;13.526;2023-01-26T01:35:06;96489.84;;;1.38;69.95
66479;BME280;53294;47.912;13.526;2023-01-26T01:37:33;96491.13;;;1.48;69.21
66479;BME280;53294;47.912;13.526;2023-01-26T01:39:59;96491.53;;;1.21;70.35
66479;BME280;53294;47.912;13.526;2023-01-26T01:42:26;96482.47;;;1.29;70.13
66479;BME280;53294;47.912;13.526;2023-01-26T01:48:00;96488.56;;;1.41;69.83
66479;BME280;53294;47.912;13.526;2023-01-26T01:50:34;96490.03;;;1.13;70.22
66479;BME280;53294;47.912;13.526;2023-01-26T01:53:02;96485.34;;;1.15;69.61
66479;BME280;53294;47.912;13.526;2023-01-26T01:55:29;96490.16;;;0.76;70.98
66479;BME280;53294;47.912;13.526;2023-01-26T01:57:58;96483.72;;;0.72;70.74
66479;BME280;53294;47.912;13.526;2023-01-26T02:00:27;96491.38;;;0.13;72.68
66479;BME280;53294;47.912;13.526;2023-01-26T02:03:14;96488.97;;;0.30;72.29
66479;BME280;53294;47.912;13.526;2023-01-26T02:05:53;96490.47;;;0.56;71.55
66479;BME280;53294;47.912;13.526;2023-01-26T02:08:33;96483.41;;;0.80;70.97
66479;BME280;53294;47.912;13.526;2023-01-26T02:11:06;96487.72;;;1.05;70.19
66479;BME280;53294;47.912;13.526;2023-01-26T02:13:34;96478.94;;;0.93;70.57
66479;BME280;53294;47.912;13.526;2023-01-26T02:16:02;96471.66;;;0.76;71.17
66479;BME280;53294;47.912;13.526;2023-01-26T02:18:29;96475.47;;;0.80;70.95
66479;BME280;53294;47.912;13.526;2023-01-26T02:21:02;96469.47;;;0.73;71.26
66479;BME280;53294;47.912;13.526;2023-01-26T02:26:02;96468.97;;;0.15;73.30
66479;BME280;53294;47.912;13.526;2023-01-26T02:28:29;96464.44;;;-0.14;74.49
66479;BME280;53294;47.912;13.526;2023-01-26T02:30:56;96452.56;;;-0.05;74.28
66479;BME280;53294;47.912;13.526;2023-01-26T02:33:25;96449.63;;;0.03;74.41
66479;BME280;53294;47.912;13.526;2023-01-26T02:35:52;96445.44;;;0.14;73.79
66479;BME280;53294;47.912;13.526;2023-01-26T02:38:21;96437.91;;;-0.01;74.47
66479;BME280;53294;47.912;13.526;2023-01-26T02:40:58;96452.50;;;-0.17;75.09
66479;BME280;53294;47.912;13.526;2023-01-26T02:43:27;96444.72;;;-0.12;74.95
66479;BME280;53294;47.912;13.526;2023-01-26T02:45:54;96445.69;;;-0.06;74.64
66479;BME280;53294;47.912;13.526;2023-01-26T02:48:21;96441.56;;;-0.02;74.65
66479;BME280;53294;47.912;13.526;2023-01-26T02:51:06;96435.25;;;-0.20;75.05
66479;BME280;53294;47.912;13.526;2023-01-26T02:53:33;96440.09;;;-0.16;74.86
66479;BME280;53294;47.912;13.526;2023-01-26T02:56:00;96439.13;;;-0.04;74.64
66479;BME280;53294;47.912;13.526;2023-01-26T02:58:27;96436.00;;;-0.12;74.86
66479;BME280;53294;47.912;13.526;2023-01-26T03:00:53;96436.22;;;-0.14;75.03
66479;BME280;53294;47.912;13.526;2023-01-26T03:03:24;96426.88;;;0.02;74.52
66479;BME280;53294;47.912;13.526;2023-01-26T03:05:51;96424.91;;;-0.03;74.86
66479;BME280;53294;47.912;13.526;2023-01-26T03:08:18;96423.16;;;0.10;74.53
66479;BME280;53294;47.912;13.526;2023-01-26T03:10:45;96425.28;;;0.01;74.78
66479;BME280;53294;47.912;13.526;2023-01-26T03:13:13;96417.00;;;-0.03;74.93
66479;BME280;53294;47.912;13.526;2023-01-26T03:15:40;96428.22;;;-0.07;75.24
66479;BME280;53294;47.912;13.526;2023-01-26T03:18:15;96417.06;;;-0.09;75.32
66479;BME280;53294;47.912;13.526;2023-01-26T03:21:06;96416.66;;;-0.25;75.75
66479;BME280;53294;47.912;13.526;2023-01-26T03:23:53;96425.16;;;-0.23;75.65
66479;BME280;53294;47.912;13.526;2023-01-26T03:26:38;96414.88;;;-0.12;75.53
66479;BME280;53294;47.912;13.526;2023-01-26T03:29:24;96415.00;;;-0.07;75.14
66479;BME280;53294;47.912;13.526;2023-01-26T03:31:52;96412.06;;;-0.17;75.49
66479;BME280;53294;47.912;13.526;2023-01-26T03:34:19;96408.94;;;-0.26;75.82
66479;BME280;53294;47.912;13.526;2023-01-26T03:36:46;96419.56;;;-0.33;76.29
66479;BME280;53294;47.912;13.526;2023-01-26T03:39:14;96418.53;;;-0.32;76.27
66479;BME280;53294;47.912;13.526;2023-01-26T03:42:01;96415.91;;;-0.32;76.19
66479;BME280;53294;47.912;13.526;2023-01-26T03:44:46;96406.34;;;-0.14;75.32
66479;BME280;53294;47.912;13.526;2023-01-26T03:47:32;96411.25;;;0.19;74.67
66479;BME280;53294;47.912;13.526;2023-01-26T03:50:17;96411.25;;;0.31;73.76
66479;BME280;53294;47.912;13.526;2023-01-26T03:53:14;96406.47;;;0.70;73.03
66479;BME280;53294;47.912;13.526;2023-01-26T03:55:59;96406.69;;;0.80;72.22
66479;BME280;53294;47.912;13.526;2023-01-26T03:58:44;96407.78;;;0.49;73.10
66479;BME280;53294;47.912;13.526;2023-01-26T04:01:12;96399.72;;;0.86;72.16
66479;BME280;53294;47.912;13.526;2023-01-26T04:03:49;96400.50;;;0.86;72.24
66479;BME280;53294;47.912;13.526;2023-01-26T04:06:35;96405.59;;;1.00;72.01
66479;BME280;53294;47.912;13.526;2023-01-26T04:09:20;96407.69;;;1.21;71.18
66479;BME280;53294;47.912;13.526;2023-01-26T04:11:48;96403.06;;;1.05;71.41
66479;BME280;53294;47.912;13.526;2023-01-26T04:14:15;96409.84;;;1.01;71.79
66479;BME280;53294;47.912;13.526;2023-01-26T04:17:16;96397.28;;;0.84;72.02
66479;BME280;53294;47.912;13.526;2023-01-26T04:20:02;96388.31;;;0.85;72.13
66479;BME280;53294;47.912;13.526;2023-01-26T04:22:47;96404.13;;;0.62;72.55
66479;BME280;53294;47.912;13.526;2023-01-26T04:25:16;96395.28;;;0.68;72.66
66479;BME280;53294;47.912;13.526;2023-01-26T04:27:43;96393.13;;;0.77;72.15
66479;BME280;53294;47.912;13.526;2023-01-26T04:30:13;96390.50;;;1.00;71.33
66479;BME280;53294;47.912;13.526;2023-01-26T04:32:40;96392.81;;;1.08;71.35
66479;BME280;53294;47.912;13.526;2023-01-26T04:35:08;96395.00;;;1.23;70.86
66479;BME280;53294;47.912;13.526;2023-01-26T04:37:35;96386.16;;;1.18;71.00
66479;BME280;53294;47.912;13.526;2023-01-26T04:40:02;96385.00;;;1.25;70.90
66479;BME280;53294;47.912;13.526;2023-01-26T04:42:29;96384.66;;;1.34;70.42
66479;BME280;53294;47.912;13.526;2023-01-26T04:44:56;96371.66;;;1.32;70.70
66479;BME280;53294;47.912;13.526;2023-01-26T04:47:23;96373.63;;;1.37;70.44
66479;BME280;53294;47.912;13.526;2023-01-26T04:49:50;96369.34;;;1.48;70.41
66479;BME280;53294;47.912;13.526;2023-01-26T04:52:16;96376.34;;;0.95;71.35
66479;BME280;53294;47.912;13.526;2023-01-26T04:54:43;96369.34;;;0.77;71.91
66479;BME280;53294;47.912;13.526;2023-01-26T04:57:09;96374.16;;;0.80;72.15
66479;BME280;53294;47.912;13.526;2023-01-26T04:59:36;96373.84;;;1.00;71.58
66479;BME280;53294;47.912;13.526;2023-01-26T05:02:03;96377.03;;;0.90;71.69
66479;BME280;53294;47.912;13.526;2023-01-26T05:04:30;96373.63;;;1.01;71.40
66479;BME280;53294;47.912;13.526;2023-01-26T05:06:57;96367.06;;;1.28;70.59
66479;BME280;53294;47.912;13.526;2023-01-26T05:09:23;96370.03;;;1.31;70.27
66479;BME280;53294;47.912;13.526;2023-01-26T05:11:50;96371.19;;;1.23;70.81
66479;BME280;53294;47.912;13.526;2023-01-26T05:14:17;96376.81;;;1.39;70.15
66479;BME280;53294;47.912;13.526;2023-01-26T05:16:43;96376.56;;;1.52;70.10
66479;BME280;53294;47.912;13.526;2023-01-26T05:19:10;96374.97;;;1.51;70.17
66479;BME280;53294;47.912;13.526;2023-01-26T05:21:37;96371.50;;;1.63;69.94
66479;BME280;53294;47.912;13.526;2023-01-26T05:24:04;96362.72;;;1.74;69.76
66479;BME280;53294;47.912;13.526;2023-01-26T05:26:30;96366.41;;;1.73;70.11
66479;BME280;53294;47.912;13.526;2023-01-26T05:28:57;96369.59;;;1.87;69.71
66479;BME280;53294;47.912;13.526;2023-01-26T05:31:24;96357.84;;;1.94;69.10
66479;BME280;53294;47.912;13.526;2023-01-26T05:33:50;96361.28;;;1.95;69.38
66479;BME280;53294;47.912;13.526;2023-01-26T05:36:17;96361.50;;;1.93;69.40
66479;BME280;53294;47.912;13.526;2023-01-26T05:38:43;96366.34;;;1.96;69.28
66479;BME280;53294;47.912;13.526;2023-01-26T05:41:10;96366.66;;;2.00;69.20
66479;BME280;53294;47.912;13.526;2023-01-26T05:43:37;96367.50;;;2.01;69.11
66479;BME280;53294;47.912;13.526;2023-01-26T05:46:04;96357.25;;;1.92;69.32
66479;BME280;53294;47.912;13.526;2023-01-26T05:48:31;96358.16;;;1.98;69.05
66479;BME280;53294;47.912;13.526;2023-01-26T05:50:57;96357.63;;;1.84;69.26
66479;BME280;53294;47.912;13.526;2023-01-26T05:53:24;96349.19;;;1.99;69.31
66479;BME280;53294;47.912;13.526;2023-01-26T05:55:51;96354.28;;;1.89;68.96
66479;BME280;53294;47.912;13.526;2023-01-26T05:58:17;96359.03;;;1.75;69.17
66479;BME280;53294;47.912;13.526;2023-01-26T06:00:44;96353.72;;;1.75;69.24
66479;BME280;53294;47.912;13.526;2023-01-26T06:03:11;96354.41;;;1.82;69.17
66479;BME280;53294;47.912;13.526;2023-01-26T06:05:38;96353.63;;;1.70;69.71
66479;BME280;53294;47.912;13.526;2023-01-26T06:08:04;96366.69;;;1.48;70.62
66479;BME280;53294;47.912;13.526;2023-01-26T06:10:31;96355.81;;;1.73;69.87
66479;BME280;53294;47.912;13.526;2023-01-26T06:12:59;96352.13;;;1.74;69.99
66479;BME280;53294;47.912;13.526;2023-01-26T06:15:25;96351.84;;;1.87;69.13
66479;BME280;53294;47.912;13.526;2023-01-26T06:17:52;96365.47;;;1.79;69.09
66479;BME280;53294;47.912;13.526;2023-01-26T06:20:19;96363.19;;;1.71;69.52
66479;BME280;53294;47.912;13.526;2023-01-26T06:22:45;96363.78;;;1.61;69.98
66479;BME280;53294;47.912;13.526;2023-01-26T06:25:12;96361.03;;;1.44;70.60
66479;BME280;53294;47.912;13.526;2023-01-26T06:27:39;96362.75;;;1.50;70.39
66479;BME280;53294;47.912;13.526;2023-01-26T06:30:08;96350.69;;;1.54;70.19
66479;BME280;53294;47.912;13.526;2023-01-26T06:32:36;96350.53;;;1.73;69.52
66479;BME280;53294;47.912;13.526;2023-01-26T06:35:03;96365.63;;;1.49;70.26
66479;BME280;53294;47.912;13.526;2023-01-26T06:37:31;96359.63;;;1.65;69.92
66479;BME280;53294;47.912;13.526;2023-01-26T06:39:59;96348.09;;;1.71;69.63
66479;BME280;53294;47.912;13.526;2023-01-26T06:42:25;96352.97;;;1.63;69.97
66479;BME280;53294;47.912;13.526;2023-01-26T06:44:52;96353.63;;;1.70;69.35
66479;BME280;53294;47.912;13.526;2023-01-26T06:47:18;96351.41;;;1.78;69.31
66479;BME280;53294;47.912;13.526;2023-01-26T06:49:45;96349.94;;;1.71;69.31
66479;BME280;53294;47.912;13.526;2023-01-26T06:52:25;96357.75;;;1.77;69.33
66479;BME280;53294;47.912;13.526;2023-01-26T06:54:54;96353.78;;;1.51;69.56
66479;BME280;53294;47.912;13.526;2023-01-26T06:57:23;96358.19;;;1.34;70.16
66479;BME280;53294;47.912;13.526;2023-01-26T06:59:50;96362.22;;;1.24;70.36
66479;BME280;53294;47.912;13.526;2023-01-26T07:02:19;96356.34;;;1.34;70.28
66479;BME280;53294;47.912;13.526;2023-01-26T07:04:47;96355.19;;;1.42;69.96
66479;BME280;53294;47.912;13.526;2023-01-26T07:07:14;96355.28;;;1.59;69.45
66479;BME280;53294;47.912;13.526;2023-01-26T07:09:41;96346.63;;;1.64;69.16
66479;BME280;53294;47.912;13.526;2023-01-26T07:12:08;96350.81;;;1.36;70.08
66479;BME280;53294;47.912;13.526;2023-01-26T07:14:34;96355.78;;;0.97;71.56
66479;BME280;53294;47.912;13.526;2023-01-26T07:17:01;96360.50;;;1.06;70.88
66479;BME280;53294;47.912;13.526;2023-01-26T07:19:28;96354.16;;;1.19;70.75
66479;BME280;53294;47.912;13.526;2023-01-26T07:21:56;96351.50;;;1.19;70.47
66479;BME280;53294;47.912;13.526;2023-01-26T07:24:23;96356.34;;;1.22;70.77
66479;BME280;53294;47.912;13.526;2023-01-26T07:26:50;96357.72;;;1.13;70.68
66479;BME280;53294;47.912;13.526;2023-01-26T07:29:17;96352.66;;;1.23;70.38
66479;BME280;53294;47.912;13.526;2023-01-26T07:31:43;96350.38;;;1.15;70.84
66479;BME280;53294;47.912;13.526;2023-01-26T07:34:11;96345.09;;;1.03;70.94
66479;BME280;53294;47.912;13.526;2023-01-26T07:36:37;96353.69;;;1.22;70.21
66479;BME280;53294;47.912;13.526;2023-01-26T07:39:04;96346.91;;;1.15;70.32
66479;BME280;53294;47.912;13.526;2023-01-26T07:41:33;96350.59;;;1.25;69.91
66479;BME280;53294;47.912;13.526;2023-01-26T07:44:00;96351.28;;;1.33;69.26
66479;BME280;53294;47.912;13.526;2023-01-26T07:46:27;96353.13;;;1.20;69.98
66479;BME280;53294;47.912;13.526;2023-01-26T07:48:54;96353.94;;;1.21;69.89
66479;BME280;53294;47.912;13.526;2023-01-26T07:51:21;96357.50;;;1.27;69.93
66479;BME280;53294;47.912;13.526;2023-01-26T07:53:48;96358.53;;;1.37;69.67
66479;BME280;53294;47.912;13.526;2023-01-26T07:56:16;96358.41;;;1.44;69.74
66479;BME280;53294;47.912;13.526;2023-01-26T07:58:52;96347.66;;;1.63;69.37
66479;BME280;53294;47.912;13.526;2023-01-26T08:01:20;96357.56;;;1.67;68.83
66479;BME280;53294;47.912;13.526;2023-01-26T08:03:49;96344.41;;;1.72;68.87
66479;BME280;53294;47.912;13.526;2023-01-26T08:06:16;96349.94;;;1.71;68.73
66479;BME280;53294;47.912;13.526;2023-01-26T08:08:45;96346.97;;;1.55;69.24
66479;BME280;53294;47.912;13.526;2023-01-26T08:11:17;96349.75;;;1.60;69.30
66479;BME280;53294;47.912;13.526;2023-01-26T08:13:48;96344.75;;;1.76;69.22
66479;BME280;53294;47.912;13.526;2023-01-26T08:16:15;96346.88;;;1.50;69.41
66479;BME280;53294;47.912;13.526;2023-01-26T08:18:44;96346.97;;;1.67;69.09
66479;BME280;53294;47.912;13.526;2023-01-26T08:21:12;96341.41;;;1.81;68.40
66479;BME280;53294;47.912;13.526;2023-01-26T08:23:39;96343.22;;;1.80;68.66
66479;BME280;53294;47.912;13.526;2023-01-26T08:26:11;96342.09;;;1.76;68.44
66479;BME280;53294;47.912;13.526;2023-01-26T08:28:39;96355.50;;;1.46;68.88
66479;BME280;53294;47.912;13.526;2023-01-26T08:31:09;96353.38;;;1.31;70.19
66479;BME280;53294;47.912;13.526;2023-01-26T08:33:37;96349.91;;;1.18;70.18
66479;BME280;53294;47.912;13.526;2023-01-26T08:36:07;96355.09;;;1.13;69.99
66479;BME280;53294;47.912;13.526;2023-01-26T08:38:34;96353.72;;;0.99;70.51
66479;BME280;53294;47.912;13.526;2023-01-26T08:41:01;96353.50;;;1.12;70.15
66479;BME280;53294;47.912;13.526;2023-01-26T08:43:28;96351.84;;;1.35;69.83
66479;BME280;53294;47.912;13.526;2023-01-26T08:45:55;96349.56;;;1.38;69.71
66479;BME280;53294;47.912;13.526;2023-01-26T08:48:22;96345.38;;;1.54;69.51
66479;BME280;53294;47.912;13.526;2023-01-26T08:50:53;96347.44;;;1.64;69.59
66479;BME280;53294;47.912;13.526;2023-01-26T08:53:20;96344.78;;;1.64;69.03
66479;BME280;53294;47.912;13.526;2023-01-26T08:55:47;96345.78;;;1.75;69.12
66479;BME280;53294;47.912;13.526;2023-01-26T08:58:14;96334.72;;;1.78;68.62
66479;BME280;53294;47.912;13.526;2023-01-26T09:00:40;96337.09;;;1.91;68.37
66479;BME280;53294;47.912;13.526;2023-01-26T09:03:07;96331.63;;;1.69;68.89
66479;BME280;53294;47.912;13.526;2023-01-26T09:05:36;96337.63;;;1.65;68.71
66479;BME280;53294;47.912;13.526;2023-01-26T09:08:04;96329.72;;;1.53;69.41
66479;BME280;53294;47.912;13.526;2023-01-26T09:10:31;96331.91;;;1.44;69.45
66479;BME280;53294;47.912;13.526;2023-01-26T09:12:59;96337.44;;;1.54;69.48
66479;BME280;53294;47.912;13.526;2023-01-26T09:15:27;96338.38;;;1.48;69.05
66479;BME280;53294;47.912;13.526;2023-01-26T09:17:53;96334.56;;;1.56;69.03
66479;BME280;53294;47.912;13.526;2023-01-26T09:20:20;96339.78;;;1.79;68.94
66479;BME280;53294;47.912;13.526;2023-01-26T09:22:47;96341.06;;;1.77;68.84
66479;BME280;53294;47.912;13.526;2023-01-26T09:25:14;96341.34;;;1.64;68.89
66479;BME280;53294;47.912;13.526;2023-01-26T09:27:41;96338.69;;;1.64;68.95
66479;BME280;53294;47.912;13.526;2023-01-26T09:30:08;96334.41;;;1.63;68.89
66479;BME280;53294;47.912;13.526;2023-01-26T09:32:35;96338.38;;;1.48;69.17
66479;BME280;53294;47.912;13.526;2023-01-26T09:35:01;96335.50;;;1.50;69.04
66479;BME280;53294;47.912;13.526;2023-01-26T09:37:28;96332.38;;;1.41;69.32
66479;BME280;53294;47.912;13.526;2023-01-26T09:39:55;96335.97;;;1.35;69.26
66479;BME280;53294;47.912;13.526;2023-01-26T09:45:08;96324.09;;;1.49;69.02
66479;BME280;53294;47.912;13.526;2023-01-26T09:50:20;96319.09;;;1.65;68.46
66479;BME280;53294;47.912;13.526;2023-01-26T09:52:55;96318.81;;;1.49;69.27
66479;BME280;53294;47.912;13.526;2023-01-26T09:55:23;96321.25;;;1.68;69.09
66479;BME280;53294;47.912;13.526;2023-01-26T09:58:04;96317.34;;;1.70;68.76
66479;BME280;53294;47.912;13.526;2023-01-26T10:04:11;96310.28;;;1.47;69.51
66479;BME280;53294;47.912;13.526;2023-01-26T10:06:29;96307.72;;;1.52;69.01
66479;BME280;53294;47.912;13.526;2023-01-26T10:09:00;96306.31;;;1.61;69.19
66479;BME280;53294;47.912;13.526;2023-01-26T10:11:36;96306.31;;;1.61;68.55
66479;BME280;53294;47.912;13.526;2023-01-26T10:14:12;96298.13;;;1.63;69.01
66479;BME280;53294;47.912;13.526;2023-01-26T10:16:46;96300.84;;;1.80;68.47
66479;BME280;53294;47.912;13.526;2023-01-26T10:19:25;96296.31;;;1.92;68.47
66479;BME280;53294;47.912;13.526;2023-01-26T10:22:00;96294.72;;;1.91;68.73
66479;BME280;53294;47.912;13.526;2023-01-26T10:24:32;96299.13;;;1.74;68.84
66479;BME280;53294;47.912;13.526;2023-01-26T10:27:00;96291.09;;;1.69;69.06
66479;BME280;53294;47.912;13.526;2023-01-26T10:29:26;96298.97;;;1.64;69.11
66479;BME280;53294;47.912;13.526;2023-01-26T10:31:53;96291.56;;;1.77;68.77
66479;BME280;53294;47.912;13.526;2023-01-26T10:34:25;96292.25;;;1.73;69.01
66479;BME280;53294;47.912;13.526;2023-01-26T10:37:01;96293.19;;;1.67;69.14
66479;BME280;53294;47.912;13.526;2023-01-26T10:39:36;96291.34;;;1.67;69.14
66479;BME280;53294;47.912;13.526;2023-01-26T10:42:22;96281.97;;;1.76;69.12
66479;BME280;53294;47.912;13.526;2023-01-26T10:44:50;96288.91;;;1.77;68.84
66479;BME280;53294;47.912;13.526;2023-01-26T10:47:18;96290.66;;;1.60;68.94
66479;BME280;53294;47.912;13.526;2023-01-26T10:49:47;96289.16;;;1.64;69.38
66479;BME280;53294;47.912;13.526;2023-01-26T10:52:22;96291.47;;;1.89;68.55
66479;BME280;53294;47.912;13.526;2023-01-26T10:55:11;96282.03;;;1.93;68.32
66479;BME280;53294;47.912;13.526;2023-01-26T10:57:40;96289.06;;;1.88;68.80
66479;BME280;53294;47.912;13.526;2023-01-26T11:02:50;96286.97;;;1.73;68.05
66479;BME280;53294;47.912;13.526;2023-01-26T11:05:22;96287.59;;;1.80;68.86
66479;BME280;53294;47.912;13.526;2023-01-26T11:07:53;96283.47;;;1.72;68.64
66479;BME280;53294;47.912;13.526;2023-01-26T11:13:04;96281.78;;;1.66;68.87
66479;BME280;53294;47.912;13.526;2023-01-26T11:15:37;96283.25;;;1.74;68.56
66479;BME280;53294;47.912;13.526;2023-01-26T11:20:45;96272.06;;;1.84;68.59
66479;BME280;53294;47.912;13.526;2023-01-26T11:37:02;96251.72;;;2.18;67.09
66479;BME280;53294;47.912;13.526;2023-01-26T11:39:49;96243.28;;;2.21;67.48
66479;BME280;53294;47.912;13.526;2023-01-26T11:42:46;96246.59;;;2.11;67.71
66479;BME280;53294;47.912;13.526;2023-01-26T11:45:21;96244.75;;;1.83;68.13
66479;BME280;53294;47.912;13.526;2023-01-26T11:50:53;96232.84;;;1.97;67.42
66479;BME280;53294;47.912;13.526;2023-01-26T11:59:53;96235.78;;;1.84;68.01
66479;BME280;53294;47.912;13.526;2023-01-26T12:02:26;96233.84;;;1.79;67.81
66479;BME280;53294;47.912;13.526;2023-01-26T12:04:57;96229.53;;;1.90;67.46
66479;BME280;53294;47.912;13.526;2023-01-26T12:07:30;96234.47;;;1.70;68.25
66479;BME280;53294;47.912;13.526;2023-01-26T12:10:01;96234.91;;;1.95;67.79
66479;BME280;53294;47.912;13.526;2023-01-26T12:12:40;96242.75;;;1.90;67.95
66479;BME280;53294;47.912;13.526;2023-01-26T12:15:32;96236.59;;;2.02;66.74
66479;BME280;53294;47.912;13.526;2023-01-26T12:18:22;96226.94;;;1.95;66.68
66479;BME280;53294;47.912;13.526;2023-01-26T12:21:04;96228.50;;;1.63;68.33
66479;BME280;53294;47.912;13.526;2023-01-26T12:23:46;96223.41;;;1.73;67.98
66479;BME280;53294;47.912;13.526;2023-01-26T12:26:16;96234.81;;;1.61;67.88
66479;BME280;53294;47.912;13.526;2023-01-26T12:31:37;96224.63;;;1.82;67.80
66479;BME280;53294;47.912;13.526;2023-01-26T12:34:11;96224.50;;;1.77;67.70
66479;BME280;53294;47.912;13.526;2023-01-26T12:37:34;96223.41;;;1.73;67.84
66479;BME280;53294;47.912;13.526;2023-01-26T12:39:43;96222.81;;;1.71;66.93
66479;BME280;53294;47.912;13.526;2023-01-26T12:44:54;96218.84;;;1.56;68.17
66479;BME280;53294;47.912;13.526;2023-01-26T12:47:35;96216.16;;;1.68;67.41
66479;BME280;53294;47.912;13.526;2023-01-26T12:50:21;96221.22;;;1.70;67.71
66479;BME280;53294;47.912;13.526;2023-01-26T12:55:49;96222.84;;;1.88;67.20
66479;BME280;53294;47.912;13.526;2023-01-26T12:58:23;96221.72;;;1.84;67.37
66479;BME280;53294;47.912;13.526;2023-01-26T13:01:04;96214.75;;;1.94;66.87
66479;BME280;53294;47.912;13.526;2023-01-26T13:03:35;96212.00;;;1.89;67.15
66479;BME280;53294;47.912;13.526;2023-01-26T13:08:48;96208.97;;;1.81;67.69
66479;BME280;53294;47.912;13.526;2023-01-26T13:27:30;96225.16;;;1.84;67.02
66479;BME280;53294;47.912;13.526;2023-01-26T13:29:57;96226.56;;;2.04;66.43
66479;BME280;53294;47.912;13.526;2023-01-26T13:34:54;96220.56;;;2.25;66.31
66479;BME280;53294;47.912;13.526;2023-01-26T13:37:46;96225.34;;;1.94;66.81
66479;BME280;53294;47.912;13.526;2023-01-26T13:40:36;96224.47;;;1.89;65.99
66479;BME280;53294;47.912;13.526;2023-01-26T13:43:25;96227.13;;;2.06;66.28
66479;BME280;53294;47.912;13.526;2023-01-26T13:51:00;96223.75;;;1.93;66.83
66479;BME280;53294;47.912;13.526;2023-01-26T13:53:39;96224.63;;;1.53;67.08
66479;BME280;53294;47.912;13.526;2023-01-26T13:56:26;96223.88;;;1.70;66.54
66479;BME280;53294;47.912;13.526;2023-01-26T13:59:22;96230.22;;;1.57;67.08
66479;BME280;53294;47.912;13.526;2023-01-26T14:01:52;96226.41;;;1.65;66.98
66479;BME280;53294;47.912;13.526;2023-01-26T14:04:21;96229.72;;;1.43;67.05
66479;BME280;53294;47.912;13.526;2023-01-26T14:07:00;96227.91;;;1.32;67.26
66479;BME280;53294;47.912;13.526;2023-01-26T14:09:31;96222.34;;;1.45;66.98
66479;BME280;53294;47.912;13.526;2023-01-26T14:12:05;96223.00;;;1.52;67.01
66479;BME280;53294;47.912;13.526;2023-01-26T14:14:34;96224.28;;;1.50;66.85
66479;BME280;53294;47.912;13.526;2023-01-26T14:17:07;96228.44;;;1.46;66.73
66479;BME280;53294;47.912;13.526;2023-01-26T14:19:39;96233.41;;;1.42;67.13
66479;BME280;53294;47.912;13.526;2023-01-26T14:22:10;96228.13;;;1.42;66.12
66479;BME280;53294;47.912;13.526;2023-01-26T14:24:38;96224.84;;;1.23;66.72
66479;BME280;53294;47.912;13.526;2023-01-26T14:29:49;96227.72;;;1.21;67.20
66479;BME280;53294;47.912;13.526;2023-01-26T14:32:16;96233.88;;;1.39;66.94
66479;BME280;53294;47.912;13.526;2023-01-26T14:34:53;96231.31;;;1.44;66.80
66479;BME280;53294;47.912;13.526;2023-01-26T14:37:20;96232.00;;;1.51;66.30
66479;BME280;53294;47.912;13.526;2023-01-26T14:39:47;96241.13;;;1.43;65.96
66479;BME280;53294;47.912;13.526;2023-01-26T14:42:18;96235.06;;;1.19;66.85